createdAt,value
2023-04-07T00:01:15.857Z,100709.15
2023-04-07T00:03:46.863Z,100708.89
2023-04-07T00:06:15.239Z,100711.42
2023-04-07T00:08:48.945Z,100710.27
2023-04-07T00:11:17.937Z,100711.95
2023-04-07T00:13:47.647Z,100710.38
2023-04-07T00:16:16.374Z,100710.27
2023-04-07T00:18:44.920Z,100706.66
2023-04-07T00:21:13.296Z,100708.45
2023-04-07T00:23:43.105Z,100709.63
2023-04-07T00:26:11.585Z,100711.22
2023-04-07T00:28:40.990Z,100709.33
2023-04-07T00:31:13.477Z,100709.00
2023-04-07T00:33:41.842Z,100711.57
2023-04-07T00:36:11.062Z,100712.85
2023-04-07T00:38:40.005Z,100711.75
2023-04-07T00:41:08.526Z,100715.11
2023-04-07T00:43:38.833Z,100716.41
2023-04-07T00:46:07.650Z,100713.47
2023-04-07T00:48:37.010Z,100710.52
2023-04-07T00:51:05.710Z,100710.99
2023-04-07T00:53:33.891Z,100711.23
2023-04-07T00:56:03.389Z,100710.13
2023-04-07T00:58:31.926Z,100710.92
2023-04-07T01:01:16.142Z,100705.96
2023-04-07T01:03:49.119Z,100706.09
2023-04-07T01:06:18.715Z,100708.90
2023-04-07T01:09:08.124Z,100707.32
2023-04-07T01:11:42.819Z,100709.11
2023-04-07T01:14:12.316Z,100707.06
2023-04-07T01:16:48.781Z,100711.82
2023-04-07T01:19:21.797Z,100710.16
2023-04-07T01:21:56.186Z,100708.02
2023-04-07T01:24:43.916Z,100706.34
2023-04-07T01:27:21.630Z,100708.60
2023-04-07T01:29:51.229Z,100702.64
2023-04-07T01:32:20.631Z,100701.58
2023-04-07T01:34:52.184Z,100701.05
2023-04-07T01:37:22.024Z,100704.05
2023-04-07T01:39:50.577Z,100708.91
2023-04-07T01:42:19.667Z,100711.20
2023-04-07T01:44:48.358Z,100712.99
2023-04-07T01:47:16.859Z,100712.83
2023-04-07T01:49:45.833Z,100714.27
2023-04-07T01:52:14.312Z,100717.77
2023-04-07T01:54:43.512Z,100717.21
2023-04-07T01:57:12.501Z,100713.90
2023-04-07T01:59:42.110Z,100711.42
2023-04-07T02:02:14.450Z,100712.75
2023-04-07T02:04:53.512Z,100711.48
2023-04-07T02:07:25.063Z,100709.85
2023-04-07T02:09:54.061Z,100707.83
2023-04-07T02:12:22.330Z,100706.70
2023-04-07T02:15:01.160Z,100709.52
2023-04-07T02:17:32.285Z,100706.00
2023-04-07T02:20:00.998Z,100706.11
2023-04-07T02:22:29.876Z,100703.55
2023-04-07T02:24:58.461Z,100705.77
2023-04-07T02:27:29.098Z,100704.55
2023-04-07T02:29:57.685Z,100705.45
2023-04-07T02:32:26.478Z,100703.91
2023-04-07T02:34:55.248Z,100704.65
2023-04-07T02:37:27.352Z,100701.65
2023-04-07T02:39:56.730Z,100704.41
2023-04-07T02:42:25.603Z,100704.25
2023-04-07T02:44:54.150Z,100705.98
2023-04-07T02:47:22.725Z,100706.33
2023-04-07T02:49:51.558Z,100706.55
2023-04-07T02:52:20.242Z,100708.02
2023-04-07T02:54:48.729Z,100706.83
2023-04-07T02:57:18.748Z,100705.83
2023-04-07T02:59:47.946Z,100704.11
2023-04-07T03:02:19.152Z,100705.71
2023-04-07T03:04:47.768Z,100708.33
2023-04-07T03:07:17.196Z,100708.42
2023-04-07T03:09:47.806Z,100707.02
2023-04-07T03:12:18.016Z,100700.69
2023-04-07T03:14:46.805Z,100705.08
2023-04-07T03:17:19.525Z,100701.13
2023-04-07T03:19:52.106Z,100701.39
2023-04-07T03:22:21.473Z,100706.02
2023-04-07T03:24:54.249Z,100710.26
2023-04-07T03:27:24.272Z,100711.14
2023-04-07T03:29:53.260Z,100712.02
2023-04-07T03:32:23.333Z,100711.30
2023-04-07T03:34:51.859Z,100713.02
2023-04-07T03:37:20.298Z,100716.33
2023-04-07T03:39:50.272Z,100718.72
2023-04-07T03:42:28.784Z,100717.33
2023-04-07T03:45:02.805Z,100718.15
2023-04-07T03:47:32.187Z,100723.47
2023-04-07T03:50:03.262Z,100722.66
2023-04-07T03:52:34.328Z,100726.66
2023-04-07T03:55:09.966Z,100727.85
2023-04-07T03:57:38.906Z,100731.55
2023-04-07T04:00:08.761Z,100732.20
2023-04-07T04:02:47.667Z,100733.02
2023-04-07T04:05:20.017Z,100729.86
2023-04-07T04:07:51.678Z,100733.70
2023-04-07T04:10:21.444Z,100731.10
2023-04-07T04:12:51.698Z,100732.09
2023-04-07T04:15:21.621Z,100732.73
2023-04-07T04:17:51.301Z,100736.22
2023-04-07T04:20:27.545Z,100736.35
2023-04-07T04:22:55.941Z,100734.81
2023-04-07T04:25:24.769Z,100739.90
2023-04-07T04:27:58.254Z,100743.90
2023-04-07T04:30:28.477Z,100742.33
2023-04-07T04:33:01.960Z,100742.63
2023-04-07T04:35:40.798Z,100741.19
2023-04-07T04:38:12.657Z,100742.77
2023-04-07T04:40:49.132Z,100747.45
2023-04-07T04:43:20.903Z,100746.19
2023-04-07T04:45:49.497Z,100749.11
2023-04-07T04:48:18.976Z,100747.71
2023-04-07T04:50:49.601Z,100747.58
2023-04-07T04:53:21.593Z,100744.87
2023-04-07T04:55:54.692Z,100744.09
2023-04-07T04:58:25.699Z,100747.72
2023-04-07T05:00:59.978Z,100745.33
2023-04-07T05:03:51.391Z,100744.48
2023-04-07T05:06:24.321Z,100743.08
2023-04-07T05:08:57.113Z,100745.54
2023-04-07T05:11:28.240Z,100745.53
2023-04-07T05:13:57.342Z,100743.39
2023-04-07T05:16:28.106Z,100745.87
2023-04-07T05:18:58.710Z,100750.17
2023-04-07T05:21:30.309Z,100754.68
2023-04-07T05:24:09.294Z,100756.03
2023-04-07T05:26:38.791Z,100754.86
2023-04-07T05:29:07.287Z,100753.83
2023-04-07T05:31:37.573Z,100753.99
2023-04-07T05:34:08.440Z,100750.61
2023-04-07T05:36:38.651Z,100755.28
2023-04-07T05:39:07.792Z,100753.89
2023-04-07T05:41:36.646Z,100754.77
2023-04-07T05:44:07.060Z,100757.29
2023-04-07T05:46:38.312Z,100760.74
2023-04-07T05:49:18.892Z,100758.77
2023-04-07T05:51:50.650Z,100763.64
2023-04-07T05:54:19.316Z,100764.88
2023-04-07T05:56:48.308Z,100765.93
2023-04-07T05:59:17.913Z,100766.45
2023-04-07T06:01:49.352Z,100762.40
2023-04-07T06:04:18.215Z,100766.80
2023-04-07T06:06:47.740Z,100769.97
2023-04-07T06:09:26.410Z,100771.33
2023-04-07T06:11:54.973Z,100776.95
2023-04-07T06:14:23.655Z,100774.70
2023-04-07T06:16:56.665Z,100776.76
2023-04-07T06:19:28.104Z,100779.88
2023-04-07T06:21:56.769Z,100780.48
2023-04-07T06:24:25.574Z,100781.55
2023-04-07T06:26:54.883Z,100780.73
2023-04-07T06:29:23.241Z,100782.70
2023-04-07T06:31:53.259Z,100788.64
2023-04-07T06:34:21.977Z,100790.28
2023-04-07T06:36:50.532Z,100789.04
2023-04-07T06:39:20.334Z,100789.21
2023-04-07T06:41:48.811Z,100787.89
2023-04-07T06:44:17.228Z,100789.89
2023-04-07T06:46:47.831Z,100788.05
2023-04-07T06:49:18.456Z,100787.73
2023-04-07T06:51:46.842Z,100786.81
2023-04-07T06:54:15.828Z,100784.66
2023-04-07T06:56:45.227Z,100779.04
2023-04-07T06:59:13.733Z,100782.92
2023-04-07T07:01:42.664Z,100788.31
2023-04-07T07:04:11.897Z,100789.14
2023-04-07T07:06:41.208Z,100791.11
2023-04-07T07:09:10.403Z,100792.57
2023-04-07T07:11:45.443Z,100788.02
2023-04-07T07:14:15.964Z,100786.96
2023-04-07T07:16:44.557Z,100791.00
2023-04-07T07:19:17.745Z,100785.21
2023-04-07T07:21:46.748Z,100781.35
2023-04-07T07:24:15.628Z,100778.89
2023-04-07T07:26:46.360Z,100781.76
2023-04-07T07:29:14.949Z,100781.09
2023-04-07T07:31:45.571Z,100779.98
2023-04-07T07:34:14.257Z,100782.65
2023-04-07T07:36:42.854Z,100787.88
2023-04-07T07:39:11.937Z,100791.21
2023-04-07T07:41:40.633Z,100795.20
2023-04-07T07:44:09.203Z,100792.83
2023-04-07T07:46:37.919Z,100789.85
2023-04-07T07:49:07.293Z,100790.81
2023-04-07T07:51:36.183Z,100793.02
2023-04-07T07:54:04.659Z,100790.12
2023-04-07T07:56:33.245Z,100788.92
2023-04-07T07:59:02.339Z,100792.45
2023-04-07T08:01:33.615Z,100791.04
2023-04-07T08:04:02.737Z,100796.04
2023-04-07T08:06:31.979Z,100793.67
2023-04-07T08:09:01.380Z,100799.35
2023-04-07T08:11:29.993Z,100796.85
2023-04-07T08:14:00.713Z,100800.75
2023-04-07T08:16:29.748Z,100802.14
2023-04-07T08:18:58.377Z,100802.94
2023-04-07T08:21:28.186Z,100804.27
2023-04-07T08:23:57.300Z,100810.63
2023-04-07T08:26:25.570Z,100809.08
2023-04-07T08:28:56.391Z,100803.48
2023-04-07T08:31:24.706Z,100804.23
2023-04-07T08:33:59.191Z,100799.13
2023-04-07T08:36:28.255Z,100803.73
2023-04-07T08:38:58.097Z,100798.60
2023-04-07T08:41:31.187Z,100791.30
2023-04-07T08:43:59.715Z,100788.31
2023-04-07T08:46:28.410Z,100793.89
2023-04-07T08:48:57.242Z,100793.21
2023-04-07T08:51:27.566Z,100793.18
2023-04-07T08:54:16.532Z,100792.08
2023-04-07T08:56:48.904Z,100795.88
2023-04-07T08:59:25.599Z,100789.59
2023-04-07T09:01:54.818Z,100782.80
2023-04-07T09:04:25.000Z,100781.66
2023-04-07T09:06:53.776Z,100781.92
2023-04-07T09:09:22.775Z,100778.36
2023-04-07T09:11:54.117Z,100781.39
2023-04-07T09:14:22.710Z,100779.80
2023-04-07T09:16:51.404Z,100781.52
2023-04-07T09:19:20.889Z,100779.67
2023-04-07T09:21:52.902Z,100776.76
2023-04-07T09:24:21.965Z,100776.72
2023-04-07T09:26:50.643Z,100777.95
2023-04-07T09:29:20.791Z,100785.68
2023-04-07T09:31:52.075Z,100784.63
2023-04-07T09:34:24.076Z,100780.79
2023-04-07T09:36:52.856Z,100776.86
2023-04-07T09:39:21.535Z,100775.91
2023-04-07T09:41:50.261Z,100785.38
2023-04-07T09:44:19.430Z,100780.34
2023-04-07T09:46:50.879Z,100781.80
2023-04-07T09:49:20.747Z,100783.60
2023-04-07T09:51:52.948Z,100786.09
2023-04-07T09:54:37.939Z,100789.84
2023-04-07T09:57:07.017Z,100792.95
2023-04-07T09:59:37.964Z,100795.33
2023-04-07T10:02:08.483Z,100794.55
2023-04-07T10:04:37.739Z,100788.81
2023-04-07T10:07:06.266Z,100788.52
2023-04-07T10:09:35.774Z,100783.63
2023-04-07T10:12:04.383Z,100788.23
2023-04-07T10:14:32.941Z,100790.92
2023-04-07T10:17:03.133Z,100790.81
2023-04-07T10:19:32.985Z,100785.07
2023-04-07T10:22:02.275Z,100785.66
2023-04-07T10:24:56.774Z,100780.95
2023-04-07T10:27:29.951Z,100786.48
2023-04-07T10:29:58.744Z,100781.80
2023-04-07T10:32:27.324Z,100781.33
2023-04-07T10:34:59.530Z,100779.59
2023-04-07T10:37:28.281Z,100779.23
2023-04-07T10:40:15.599Z,100776.78
2023-04-07T10:42:43.979Z,100772.59
2023-04-07T10:45:13.276Z,100772.80
2023-04-07T10:48:01.237Z,100770.52
2023-04-07T10:50:29.804Z,100769.11
2023-04-07T10:53:10.976Z,100771.41
2023-04-07T10:55:39.772Z,100769.36
2023-04-07T10:58:15.096Z,100768.70
2023-04-07T11:00:45.021Z,100767.45
2023-04-07T11:03:14.328Z,100763.94
2023-04-07T11:05:43.628Z,100759.73
2023-04-07T11:08:12.021Z,100758.33
2023-04-07T11:10:47.765Z,100755.86
2023-04-07T11:13:18.797Z,100754.10
2023-04-07T11:15:47.393Z,100752.34
2023-04-07T11:18:23.749Z,100748.10
2023-04-07T11:20:53.560Z,100743.50
2023-04-07T11:23:23.357Z,100744.01
2023-04-07T11:25:52.668Z,100738.52
2023-04-07T11:28:20.955Z,100737.45
2023-04-07T11:30:53.088Z,100731.80
2023-04-07T11:33:23.662Z,100731.96
2023-04-07T11:35:53.469Z,100730.90
2023-04-07T11:38:22.440Z,100725.07
2023-04-07T11:40:51.557Z,100729.30
2023-04-07T11:43:25.446Z,100723.62
2023-04-07T11:46:12.232Z,100726.42
2023-04-07T11:48:47.708Z,100724.09
2023-04-07T11:51:21.231Z,100719.98
2023-04-07T11:53:54.698Z,100721.88
2023-04-07T11:56:24.817Z,100719.88
2023-04-07T11:58:53.716Z,100718.27
2023-04-07T12:01:22.303Z,100712.23
2023-04-07T12:04:02.447Z,100710.92
2023-04-07T12:06:38.447Z,100713.30
2023-04-07T12:09:08.523Z,100703.69
2023-04-07T12:11:37.540Z,100702.41
2023-04-07T12:14:09.373Z,100703.46
2023-04-07T12:16:39.014Z,100701.91
2023-04-07T12:19:07.353Z,100704.38
2023-04-07T12:21:35.739Z,100704.04
2023-04-07T12:24:04.117Z,100700.52
2023-04-07T12:26:32.704Z,100699.52
2023-04-07T12:29:07.247Z,100694.42
2023-04-07T12:31:35.920Z,100694.14
2023-04-07T12:34:06.247Z,100692.94
2023-04-07T12:36:35.569Z,100694.71
2023-04-07T12:39:03.964Z,100692.73
2023-04-07T12:41:33.948Z,100690.56
2023-04-07T12:44:03.171Z,100690.34
2023-04-07T12:46:34.019Z,100686.42
2023-04-07T12:49:04.100Z,100690.10
2023-04-07T12:51:36.766Z,100690.98
2023-04-07T12:54:06.156Z,100687.61
2023-04-07T12:56:34.743Z,100689.39
2023-04-07T12:59:03.593Z,100689.56
2023-04-07T13:01:33.513Z,100687.98
2023-04-07T13:04:03.032Z,100683.16
2023-04-07T13:06:32.609Z,100686.30
2023-04-07T13:09:01.402Z,100684.86
2023-04-07T13:11:30.537Z,100681.33
2023-04-07T13:14:01.102Z,100682.77
2023-04-07T13:16:31.651Z,100680.10
2023-04-07T13:19:00.703Z,100676.34
2023-04-07T13:21:45.160Z,100676.65
2023-04-07T13:24:17.122Z,100677.84
2023-04-07T13:26:46.719Z,100678.52
2023-04-07T13:29:16.242Z,100674.44
2023-04-07T13:31:48.007Z,100673.74
2023-04-07T13:34:17.481Z,100676.02
2023-04-07T13:36:47.600Z,100679.11
2023-04-07T13:39:16.290Z,100670.53
2023-04-07T13:41:48.528Z,100679.67
2023-04-07T13:44:18.388Z,100679.49
2023-04-07T13:46:47.630Z,100683.23
2023-04-07T13:49:18.200Z,100683.65
2023-04-07T13:51:47.112Z,100683.33
2023-04-07T13:54:17.260Z,100685.80
2023-04-07T13:56:45.691Z,100686.35
2023-04-07T13:59:16.078Z,100687.27
2023-04-07T14:01:44.858Z,100684.45
2023-04-07T14:04:14.578Z,100682.02
2023-04-07T14:06:43.691Z,100684.84
2023-04-07T14:09:13.240Z,100681.62
2023-04-07T14:11:42.104Z,100681.63
2023-04-07T14:14:14.742Z,100684.29
2023-04-07T14:16:45.837Z,100683.94
2023-04-07T14:19:14.917Z,100684.69
2023-04-07T14:21:45.495Z,100682.23
2023-04-07T14:24:13.825Z,100684.15
2023-04-07T14:26:47.263Z,100683.58
2023-04-07T14:29:15.821Z,100684.80
2023-04-07T14:31:45.639Z,100681.44
2023-04-07T14:34:13.997Z,100682.51
2023-04-07T14:36:44.188Z,100677.98
2023-04-07T14:39:13.656Z,100679.95
2023-04-07T14:41:42.203Z,100683.79
2023-04-07T14:44:13.952Z,100680.34
2023-04-07T14:46:43.101Z,100682.05
2023-04-07T14:49:13.688Z,100684.02
2023-04-07T14:51:42.074Z,100684.59
2023-04-07T14:54:11.116Z,100680.70
2023-04-07T14:56:41.669Z,100680.02
2023-04-07T14:59:11.870Z,100684.30
2023-04-07T15:01:40.979Z,100684.34
2023-04-07T15:04:11.586Z,100682.61
2023-04-07T15:06:44.056Z,100685.14
2023-04-07T15:09:14.062Z,100687.65
2023-04-07T15:11:43.260Z,100687.16
2023-04-07T15:14:14.549Z,100691.10
2023-04-07T15:16:48.726Z,100691.14
2023-04-07T15:19:17.434Z,100689.55
2023-04-07T15:21:46.232Z,100684.60
2023-04-07T15:24:17.874Z,100685.46
2023-04-07T15:26:47.672Z,100685.11
2023-04-07T15:29:17.658Z,100682.83
2023-04-07T15:31:46.532Z,100680.90
2023-04-07T15:34:15.680Z,100686.41
2023-04-07T15:36:44.143Z,100689.08
2023-04-07T15:39:13.442Z,100692.14
2023-04-07T15:41:44.054Z,100692.33
2023-04-07T15:44:13.459Z,100696.05
2023-04-07T15:46:41.743Z,100694.44
2023-04-07T15:49:10.725Z,100696.02
2023-04-07T15:51:40.316Z,100694.61
2023-04-07T15:54:09.317Z,100694.63
2023-04-07T15:56:38.312Z,100700.14
2023-04-07T15:59:06.861Z,100703.70
2023-04-07T16:01:35.523Z,100704.25
2023-04-07T16:04:07.653Z,100706.75
2023-04-07T16:06:36.781Z,100708.55
2023-04-07T16:09:11.082Z,100711.03
2023-04-07T16:11:42.298Z,100712.27
2023-04-07T16:14:10.785Z,100716.14
2023-04-07T16:16:47.672Z,100716.52
2023-04-07T16:19:16.897Z,100718.65
2023-04-07T16:21:46.427Z,100717.62
2023-04-07T16:24:16.344Z,100720.48
2023-04-07T16:26:50.703Z,100720.14
2023-04-07T16:29:19.793Z,100725.09
2023-04-07T16:31:48.838Z,100724.58
2023-04-07T16:34:18.542Z,100728.66
2023-04-07T16:36:47.691Z,100729.73
2023-04-07T16:39:18.261Z,100734.00
2023-04-07T16:41:46.758Z,100739.16
2023-04-07T16:44:22.646Z,100737.39
2023-04-07T16:46:53.184Z,100740.05
2023-04-07T16:49:24.617Z,100744.13
2023-04-07T16:51:55.126Z,100745.02
2023-04-07T16:54:23.588Z,100750.33
2023-04-07T16:56:54.292Z,100755.48
2023-04-07T16:59:24.206Z,100755.85
2023-04-07T17:01:59.182Z,100756.56
2023-04-07T17:04:28.384Z,100760.98
2023-04-07T17:06:57.677Z,100758.34
2023-04-07T17:09:28.189Z,100759.91
2023-04-07T17:11:57.649Z,100762.92
2023-04-07T17:14:26.171Z,100760.80
2023-04-07T17:16:58.004Z,100769.29
2023-04-07T17:19:27.921Z,100763.81
2023-04-07T17:21:56.770Z,100768.77
2023-04-07T17:24:26.133Z,100770.17
2023-04-07T17:26:55.564Z,100772.65
2023-04-07T17:29:29.404Z,100773.00
2023-04-07T17:31:57.933Z,100779.19
2023-04-07T17:34:26.326Z,100780.96
2023-04-07T17:37:01.816Z,100790.33
2023-04-07T17:39:31.932Z,100792.43
2023-04-07T17:42:02.526Z,100796.32
2023-04-07T17:44:34.488Z,100800.56
2023-04-07T17:47:03.518Z,100801.27
2023-04-07T17:49:32.994Z,100802.84
2023-04-07T17:52:01.913Z,100806.38
2023-04-07T17:54:31.350Z,100809.20
2023-04-07T17:57:03.788Z,100815.91
2023-04-07T17:59:32.801Z,100824.92
2023-04-07T18:02:07.665Z,100837.98
2023-04-07T18:04:37.998Z,100843.45
2023-04-07T18:07:06.872Z,100844.84
2023-04-07T18:09:35.620Z,100847.84
2023-04-07T18:12:08.957Z,100846.59
2023-04-07T18:14:38.621Z,100854.89
2023-04-07T18:17:07.301Z,100850.65
2023-04-07T18:19:37.968Z,100854.00
2023-04-07T18:22:06.638Z,100850.98
2023-04-07T18:24:39.671Z,100849.40
2023-04-07T18:27:08.633Z,100852.57
2023-04-07T18:29:39.653Z,100851.86
2023-04-07T18:32:09.200Z,100853.81
2023-04-07T18:34:38.448Z,100848.88
2023-04-07T18:37:09.193Z,100850.10
2023-04-07T18:39:37.664Z,100852.75
2023-04-07T18:42:06.896Z,100856.10
2023-04-07T18:44:37.241Z,100859.98
2023-04-07T18:47:05.794Z,100858.57
2023-04-07T18:49:35.206Z,100854.67
2023-04-07T18:52:04.571Z,100853.44
2023-04-07T18:54:35.223Z,100852.02
2023-04-07T18:57:05.527Z,100848.48
2023-04-07T18:59:35.292Z,100847.77
2023-04-07T19:02:04.618Z,100843.19
2023-04-07T19:04:33.761Z,100841.24
2023-04-07T19:07:02.799Z,100835.59
2023-04-07T19:09:33.526Z,100834.70
2023-04-07T19:12:02.509Z,100835.57
2023-04-07T19:14:32.585Z,100835.20
2023-04-07T19:17:01.666Z,100832.71
2023-04-07T19:19:30.740Z,100834.47
2023-04-07T19:22:02.731Z,100825.94
2023-04-07T19:24:32.495Z,100825.72
2023-04-07T19:27:02.457Z,100821.11
2023-04-07T19:29:32.683Z,100820.40
2023-04-07T19:32:01.785Z,100818.15
2023-04-07T19:34:31.083Z,100821.39
2023-04-07T19:36:59.886Z,100819.98
2023-04-07T19:39:28.379Z,100820.14
2023-04-07T19:41:57.892Z,100830.39
2023-04-07T19:44:26.837Z,100836.75
2023-04-07T19:46:55.424Z,100835.35
2023-04-07T19:49:24.822Z,100832.19
2023-04-07T19:51:56.272Z,100833.92
2023-04-07T19:54:25.113Z,100842.81
2023-04-07T19:56:54.305Z,100844.55
2023-04-07T19:59:24.018Z,100838.36
2023-04-07T20:01:53.191Z,100838.90
2023-04-07T20:04:21.715Z,100835.56
2023-04-07T20:06:50.126Z,100828.70
2023-04-07T20:09:20.756Z,100828.35
2023-04-07T20:11:49.548Z,100823.77
2023-04-07T20:14:17.821Z,100818.83
2023-04-07T20:16:47.387Z,100814.58
2023-04-07T20:19:16.118Z,100820.75
2023-04-07T20:21:45.084Z,100832.91
2023-04-07T20:24:13.691Z,100835.05
2023-04-07T20:34:09.375Z,100842.45
2023-04-07T20:36:38.455Z,100835.20
2023-04-07T20:39:06.827Z,100831.68
2023-04-07T20:41:35.318Z,100839.96
2023-04-07T20:44:04.532Z,100847.52
2023-04-07T20:46:37.251Z,100844.69
2023-04-07T20:49:08.150Z,100840.10
2023-04-07T20:51:37.229Z,100836.92
2023-04-07T20:54:05.652Z,100835.52
2023-04-07T20:56:35.218Z,100835.36
2023-04-07T20:59:09.424Z,100827.26
2023-04-07T21:01:38.766Z,100834.65
2023-04-07T21:04:07.330Z,100835.66
2023-04-07T21:06:36.200Z,100834.59
2023-04-07T21:09:06.031Z,100837.06
2023-04-07T21:11:34.802Z,100837.92
2023-04-07T21:14:03.493Z,100834.21
2023-04-07T21:16:31.763Z,100832.79
2023-04-07T21:19:01.163Z,100831.89
2023-04-07T21:21:33.331Z,100830.82
2023-04-07T21:24:01.714Z,100827.30
2023-04-07T21:26:30.498Z,100826.25
2023-04-07T21:28:59.488Z,100824.66
2023-04-07T21:31:28.109Z,100818.13
2023-04-07T21:33:56.554Z,100818.31
2023-04-07T21:36:25.134Z,100822.36
2023-04-07T21:38:54.132Z,100820.08
2023-04-07T21:41:22.616Z,100817.41
2023-04-07T21:43:51.706Z,100818.28
2023-04-07T21:46:20.205Z,100820.05
2023-04-07T21:48:49.512Z,100820.59
2023-04-07T21:51:20.732Z,100820.08
2023-04-07T21:53:49.109Z,100822.20
2023-04-07T21:56:17.791Z,100824.13
2023-04-07T21:58:47.537Z,100826.42
2023-04-07T22:01:17.363Z,100823.23
2023-04-07T22:03:46.752Z,100823.78
2023-04-07T22:06:15.818Z,100825.91
2023-04-07T22:08:51.649Z,100825.73
2023-04-07T22:11:29.070Z,100819.90
2023-04-07T22:13:57.744Z,100821.50
2023-04-07T22:16:26.281Z,100818.88
2023-04-07T22:19:00.747Z,100815.53
2023-04-07T22:21:30.052Z,100818.36
2023-04-07T22:23:58.628Z,100819.94
2023-04-07T22:26:28.257Z,100818.33
2023-04-07T22:28:56.915Z,100819.39
2023-04-07T22:31:25.825Z,100819.84
2023-04-07T22:33:54.188Z,100819.39
2023-04-07T22:36:22.476Z,100818.48
2023-04-07T22:38:51.211Z,100821.66
2023-04-07T22:41:19.585Z,100822.67
2023-04-07T22:43:48.005Z,100824.58
2023-04-07T22:46:17.996Z,100820.17
2023-04-07T22:48:46.430Z,100813.34
2023-04-07T22:51:17.545Z,100813.98
2023-04-07T22:53:46.478Z,100815.39
2023-04-07T22:56:19.523Z,100814.84
2023-04-07T22:58:49.440Z,100817.44
2023-04-07T23:01:18.472Z,100815.33
2023-04-07T23:03:47.733Z,100815.85
2023-04-07T23:06:16.833Z,100816.23
2023-04-07T23:08:45.205Z,100815.23
2023-04-07T23:11:13.579Z,100813.48
2023-04-07T23:13:42.369Z,100816.28
2023-04-07T23:16:14.029Z,100810.83
2023-04-07T23:18:43.149Z,100809.30
2023-04-07T23:21:12.219Z,100812.55
2023-04-07T23:23:40.805Z,100807.48
2023-04-07T23:26:09.481Z,100806.44
2023-04-07T23:28:38.401Z,100806.40
2023-04-07T23:31:08.193Z,100802.30
2023-04-07T23:33:37.503Z,100804.90
2023-04-07T23:36:06.434Z,100806.31
2023-04-07T23:38:36.632Z,100806.85
2023-04-07T23:41:05.194Z,100808.29
2023-04-07T23:43:33.868Z,100804.45
2023-04-07T23:46:02.615Z,100802.55
2023-04-07T23:48:32.467Z,100800.27
2023-04-07T23:51:00.860Z,100801.34
2023-04-07T23:53:29.431Z,100802.75
2023-04-07T23:55:57.928Z,100805.92
2023-04-07T23:58:27.010Z,100799.94
